メインページ
METAR-TAF:

METAR-TAF

空港 :

ワシントン州, バージニア州, アメリカ合衆国

ワシントン・ダレス国際空港

緯度: 38-56-05N, 経度: 077-26-51W, 海抜: 95m

現時点の気象観測

当レポートは8分前の11:52(UTC)に作成
の風 7kt
気温 8°C
湿度 71%
気圧 1020 hPa
視程: 16.1km
高度18000ftの雲は散在している
高度23000ftの千切れ雲あり

METAR: KIAD 231152Z 01007KT 10SM SCT180 BKN230 08/03 A3012 RMK AO2 SLP200 70049 T00780033 10100 20072 51019

時間: 08:00 (12:00 UTC)

予報

当レポートは40分前の11:20(UTC)に作成
予報は23日の 12時(UTC)から 24日の 18時(UTC)まで有効
の風 5kt
視程: 10km
高度20000ftの雲は散在している
23日の 1800時(UTC)から
東/北東の風 5kt
視程: 10km
高度14000ftの千切れ雲あり
24日の 0300時(UTC)から
変向風 3kt
視程: 10km
高度3500ftの曇り
小雨
24日の 0400時(UTC)から
変向風 3kt
視程: 10km
高度3000ftの曇り
小雨
24日の 0600時(UTC)から
北東の風 4kt
視程: 10km
高度2000ftの曇り
24日の 0800時(UTC)から
北/北東の風 4kt
視程: 10km
高度1500ftの曇り
24日の 1400時(UTC)から
北/北東の風 8kt
視程: 9.7km
高度1500ftの曇り

TAF: KIAD 231120Z 2312/2418 36005KT P6SM SCT200 FM231800 06005KT P6SM BKN140 FM240300 VRB03KT P6SM -RA OVC035 FM240400 VRB03KT P6SM -RA OVC030 FM240600 04004KT P6SM RA OVC020 FM240800 03004KT P6SM RA OVC015 FM241400 03008KT 6SM RA OVC015

4,000以上の空港の気象観測と天気予報(METAR報とTAF報)

利用可能な観測所は地図上に黄色い丸と赤い丸で示す。

丸の上にカーソルを重ねると観測所名を参照できる。

次にクリックすると気象観測と天気予報を参照できる。

マップの切り替え:黒色「×」印の緑ボタンをクリックして拡大、「-」印の緑ボタンをクリックして縮小、緑色の三角印をクリックして隣りの地図に切り替え


METAR-TAF: